createdAt,value
2023-02-22T00:01:19.177Z,-9.19
2023-02-22T00:03:52.882Z,-9.26
2023-02-22T00:06:25.930Z,-9.27
2023-02-22T00:08:55.811Z,-9.37
2023-02-22T00:11:25.226Z,-9.41
2023-02-22T00:13:57.401Z,-9.54
2023-02-22T00:16:27.820Z,-9.58
2023-02-22T00:18:58.098Z,-9.64
2023-02-22T00:21:26.851Z,-9.86
2023-02-22T00:23:55.579Z,-9.80
2023-02-22T00:26:24.806Z,-9.91
2023-02-22T00:28:56.425Z,-9.88
2023-02-22T00:31:26.266Z,-10.01
2023-02-22T00:33:55.172Z,-10.10
2023-02-22T00:36:25.304Z,-10.12
2023-02-22T00:38:55.761Z,-10.28
2023-02-22T00:41:24.463Z,-10.30
2023-02-22T00:43:53.174Z,-10.42
2023-02-22T00:46:21.882Z,-10.47
2023-02-22T00:48:50.546Z,-10.59
2023-02-22T00:51:19.605Z,-10.73
2023-02-22T00:53:49.673Z,-10.65
2023-02-22T00:56:18.385Z,-10.71
2023-02-22T00:58:47.063Z,-10.73
2023-02-22T01:01:15.941Z,-10.75
2023-02-22T01:03:45.049Z,-10.81
2023-02-22T01:06:13.688Z,-10.89
2023-02-22T01:08:46.372Z,-10.94
2023-02-22T01:11:18.560Z,-11.04
2023-02-22T01:13:47.407Z,-11.05
2023-02-22T01:16:16.198Z,-11.25
2023-02-22T01:18:44.919Z,-11.23
2023-02-22T01:21:13.670Z,-11.28
2023-02-22T01:23:46.166Z,-11.31
2023-02-22T01:26:16.231Z,-11.43
2023-02-22T01:28:44.919Z,-11.42
2023-02-22T01:31:13.732Z,-11.47
2023-02-22T01:33:42.870Z,-11.52
2023-02-22T01:36:12.416Z,-11.58
2023-02-22T01:38:41.135Z,-11.67
2023-02-22T01:41:10.095Z,-11.66
2023-02-22T01:43:40.331Z,-11.69
2023-02-22T01:46:22.117Z,-11.75
2023-02-22T01:48:56.111Z,-11.76
2023-02-22T01:51:32.135Z,-11.82
2023-02-22T01:54:07.605Z,-11.88
2023-02-22T01:56:40.730Z,-11.90
2023-02-22T01:59:14.022Z,-11.94
2023-02-22T02:01:44.750Z,-11.95
2023-02-22T02:04:19.052Z,-11.98
2023-02-22T02:06:49.650Z,-12.02
2023-02-22T02:09:30.832Z,-12.07
2023-02-22T02:12:02.769Z,-12.16
2023-02-22T02:14:33.668Z,-12.17
2023-02-22T02:17:02.893Z,-12.18
2023-02-22T02:19:47.765Z,-12.19
2023-02-22T02:22:38.553Z,-12.31
2023-02-22T02:26:00.728Z,-12.24
2023-02-22T02:29:33.639Z,-12.25
2023-02-22T02:32:41.006Z,-12.42
2023-02-22T02:35:22.863Z,-12.42
2023-02-22T02:38:00.176Z,-12.50
2023-02-22T02:40:39.710Z,-12.48
2023-02-22T02:43:18.810Z,-12.67
2023-02-22T02:45:52.764Z,-12.67
2023-02-22T02:48:28.514Z,-12.72
2023-02-22T02:51:02.280Z,-12.74
2023-02-22T02:53:36.946Z,-12.80
2023-02-22T02:56:07.678Z,-12.77
2023-02-22T02:58:50.273Z,-12.88
2023-02-22T03:01:46.458Z,-12.84
2023-02-22T03:04:34.213Z,-12.96
2023-02-22T03:07:40.312Z,-12.95
2023-02-22T03:10:37.920Z,-13.00
2023-02-22T03:13:18.126Z,-13.01
2023-02-22T03:15:57.113Z,-13.06
2023-02-22T03:18:35.623Z,-13.14
2023-02-22T03:21:18.730Z,-13.18
2023-02-22T03:23:57.910Z,-13.12
2023-02-22T03:26:35.582Z,-13.11
2023-02-22T03:29:09.485Z,-13.20
2023-02-22T03:31:46.426Z,-13.16
2023-02-22T03:34:22.879Z,-13.12
2023-02-22T03:37:00.641Z,-13.12
2023-02-22T03:39:32.360Z,-13.17
2023-02-22T03:42:09.595Z,-13.26
2023-02-22T03:44:42.561Z,-13.18
2023-02-22T03:47:17.299Z,-13.24
2023-02-22T03:49:53.832Z,-13.27
2023-02-22T03:52:25.908Z,-13.25
2023-02-22T03:54:56.018Z,-13.41
2023-02-22T03:57:30.237Z,-13.30
2023-02-22T04:00:12.437Z,-13.29
2023-02-22T04:02:46.786Z,-13.34
2023-02-22T04:05:21.021Z,-13.34
2023-02-22T04:07:51.292Z,-13.42
2023-02-22T04:10:20.726Z,-13.38
2023-02-22T04:12:50.750Z,-13.39
2023-02-22T04:15:23.938Z,-13.39
2023-02-22T04:17:56.645Z,-13.39
2023-02-22T04:20:26.373Z,-13.48
2023-02-22T04:23:02.796Z,-13.44
2023-02-22T04:25:32.211Z,-13.47
2023-02-22T04:28:12.916Z,-13.45
2023-02-22T04:30:51.641Z,-13.55
2023-02-22T04:33:21.388Z,-13.61
2023-02-22T04:35:51.674Z,-13.57
2023-02-22T04:38:22.872Z,-13.59
2023-02-22T04:40:51.584Z,-13.54
2023-02-22T04:43:25.371Z,-13.57
2023-02-22T04:45:56.456Z,-13.50
2023-02-22T04:48:25.720Z,-13.57
2023-02-22T04:50:54.456Z,-13.46
2023-02-22T04:53:24.892Z,-13.43
2023-02-22T04:55:53.912Z,-13.41
2023-02-22T04:58:22.705Z,-13.34
2023-02-22T05:00:51.443Z,-13.40
2023-02-22T05:03:20.852Z,-13.42
2023-02-22T05:05:49.542Z,-13.44
2023-02-22T05:08:18.255Z,-13.52
2023-02-22T05:10:48.888Z,-13.52
2023-02-22T05:13:17.753Z,-13.42
2023-02-22T05:15:46.673Z,-13.57
2023-02-22T05:18:15.541Z,-13.47
2023-02-22T05:20:44.202Z,-13.52
2023-02-22T05:23:13.025Z,-13.54
2023-02-22T05:25:41.637Z,-13.53
2023-02-22T05:28:16.027Z,-13.52
2023-02-22T05:30:44.797Z,-13.45
2023-02-22T05:33:13.532Z,-13.45
2023-02-22T05:35:42.365Z,-13.38
2023-02-22T05:38:15.151Z,-13.38
2023-02-22T05:40:45.031Z,-13.39
2023-02-22T05:43:15.769Z,-13.31
2023-02-22T05:45:44.460Z,-13.27
2023-02-22T05:48:13.449Z,-13.22
2023-02-22T05:50:42.117Z,-13.22
2023-02-22T05:53:10.869Z,-13.23
2023-02-22T05:55:40.288Z,-13.24
2023-02-22T05:58:09.023Z,-13.24
2023-02-22T06:00:39.017Z,-13.24
2023-02-22T06:03:09.932Z,-13.29
2023-02-22T06:05:42.116Z,-13.28
2023-02-22T06:08:11.133Z,-13.31
2023-02-22T06:10:40.637Z,-13.21
2023-02-22T06:13:11.582Z,-13.15
2023-02-22T06:15:41.837Z,-13.13
2023-02-22T06:18:11.120Z,-13.26
2023-02-22T06:20:39.781Z,-13.11
2023-02-22T06:23:08.416Z,-13.08
2023-02-22T06:25:37.250Z,-13.08
2023-02-22T06:28:06.590Z,-12.96
2023-02-22T06:30:35.353Z,-12.89
2023-02-22T06:33:05.893Z,-12.83
2023-02-22T06:35:34.477Z,-12.91
2023-02-22T06:38:03.518Z,-12.80
2023-02-22T06:40:32.336Z,-12.90
2023-02-22T06:43:01.053Z,-12.85
2023-02-22T06:45:29.964Z,-12.70
2023-02-22T06:47:58.729Z,-12.71
2023-02-22T06:50:31.846Z,-12.53
2023-02-22T06:53:01.833Z,-12.37
2023-02-22T06:55:33.725Z,-12.22
2023-02-22T06:58:03.726Z,-12.20
2023-02-22T07:00:34.414Z,-12.11
2023-02-22T07:03:07.365Z,-12.03
2023-02-22T07:05:38.370Z,-11.98
2023-02-22T07:08:08.952Z,-11.85
2023-02-22T07:10:39.425Z,-11.84
2023-02-22T07:13:09.834Z,-11.71
2023-02-22T07:15:38.568Z,-11.63
2023-02-22T07:18:07.453Z,-11.53
2023-02-22T07:20:38.068Z,-11.42
2023-02-22T07:23:07.729Z,-11.26
2023-02-22T07:25:36.915Z,-11.22
2023-02-22T07:28:06.522Z,-11.24
2023-02-22T07:30:35.617Z,-11.22
2023-02-22T07:33:07.116Z,-11.11
2023-02-22T07:35:49.720Z,-11.02
2023-02-22T07:38:50.681Z,-11.08
2023-02-22T07:41:22.956Z,-11.08
2023-02-22T07:43:51.715Z,-10.95
2023-02-22T07:46:24.690Z,-10.91
2023-02-22T07:48:56.573Z,-10.91
2023-02-22T07:51:35.377Z,-10.83
2023-02-22T07:54:10.385Z,-10.89
2023-02-22T07:56:39.995Z,-10.86
2023-02-22T07:59:28.991Z,-10.78
2023-02-22T08:02:03.093Z,-10.71
2023-02-22T08:07:23.409Z,-10.64
2023-02-22T08:09:55.036Z,-10.53
2023-02-22T08:12:32.356Z,-10.53
2023-02-22T08:15:11.279Z,-10.34
2023-02-22T08:17:41.115Z,-10.29
2023-02-22T08:20:13.021Z,-10.24
2023-02-22T08:22:45.485Z,-10.20
2023-02-22T08:25:15.615Z,-9.98
2023-02-22T08:27:47.006Z,-9.80
2023-02-22T08:30:20.774Z,-9.73
2023-02-22T08:32:50.581Z,-9.63
2023-02-22T08:35:22.762Z,-9.69
2023-02-22T08:37:55.955Z,-9.70
2023-02-22T08:40:33.210Z,-9.72
2023-02-22T08:43:02.656Z,-9.64
2023-02-22T08:45:36.572Z,-9.58
2023-02-22T08:48:06.681Z,-9.49
2023-02-22T08:50:35.760Z,-9.37
2023-02-22T08:53:07.402Z,-9.17
2023-02-22T08:55:44.203Z,-9.07
2023-02-22T08:58:16.463Z,-8.71
2023-02-22T09:00:45.852Z,-8.59
2023-02-22T09:03:21.186Z,-8.45
2023-02-22T09:05:54.922Z,-8.40
2023-02-22T09:08:39.212Z,-8.23
2023-02-22T09:11:10.459Z,-8.09
2023-02-22T09:13:39.145Z,-7.91
2023-02-22T09:16:08.723Z,-7.74
2023-02-22T09:18:43.989Z,-7.63
2023-02-22T09:21:14.024Z,-7.45
2023-02-22T09:23:44.235Z,-7.26
2023-02-22T09:26:16.038Z,-7.10
2023-02-22T09:28:45.460Z,-6.86
2023-02-22T09:31:14.573Z,-6.75
2023-02-22T09:33:44.300Z,-6.66
2023-02-22T09:36:14.281Z,-6.53
2023-02-22T09:38:50.437Z,-6.49
2023-02-22T09:41:35.218Z,-6.28
2023-02-22T09:44:21.686Z,-6.26
2023-02-22T09:46:56.208Z,-6.17
2023-02-22T09:49:33.854Z,-6.07
2023-02-22T09:52:09.855Z,-6.05
2023-02-22T09:54:45.247Z,-5.94
2023-02-22T09:57:22.713Z,-5.90
2023-02-22T10:00:13.073Z,-5.90
2023-02-22T10:02:55.741Z,-5.67
2023-02-22T10:05:33.899Z,-5.86
2023-02-22T10:08:07.021Z,-5.55
2023-02-22T10:10:40.894Z,-5.49
2023-02-22T10:13:29.430Z,-5.52
2023-02-22T10:16:05.279Z,-5.40
2023-02-22T10:19:18.084Z,-5.39
2023-02-22T10:22:05.071Z,-5.24
2023-02-22T10:24:50.728Z,-5.43
2023-02-22T10:27:23.748Z,-5.23
2023-02-22T10:29:59.230Z,-5.26
2023-02-22T10:32:36.872Z,-5.36
2023-02-22T10:35:18.772Z,-5.33
2023-02-22T10:37:54.878Z,-5.15
2023-02-22T10:40:32.228Z,-4.95
2023-02-22T10:43:06.720Z,-4.79
2023-02-22T10:45:37.338Z,-4.69
2023-02-22T10:48:11.698Z,-4.96
2023-02-22T10:50:44.576Z,-4.97
2023-02-22T10:53:15.895Z,-4.97
2023-02-22T10:56:15.548Z,-5.09
2023-02-22T10:58:51.241Z,-4.97
2023-02-22T11:01:23.738Z,-5.17
2023-02-22T11:04:10.131Z,-5.13
2023-02-22T11:06:41.479Z,-5.08
2023-02-22T11:09:14.767Z,-4.95
2023-02-22T11:11:47.045Z,-5.07
2023-02-22T11:14:30.448Z,-4.89
2023-02-22T11:17:01.804Z,-5.00
2023-02-22T11:19:33.866Z,-4.98
2023-02-22T11:22:15.554Z,-4.74
2023-02-22T11:24:50.928Z,-4.74
2023-02-22T11:27:33.191Z,-4.57
2023-02-22T11:30:21.968Z,-4.75
2023-02-22T11:32:55.827Z,-4.61
2023-02-22T11:35:52.779Z,-4.62
2023-02-22T11:38:24.327Z,-4.53
2023-02-22T11:41:19.548Z,-4.49
2023-02-22T11:43:54.415Z,-4.54
2023-02-22T11:46:33.534Z,-4.76
2023-02-22T11:49:05.435Z,-4.64
2023-02-22T11:51:58.284Z,-4.48
2023-02-22T11:54:51.630Z,-4.54
2023-02-22T11:57:46.638Z,-4.57
2023-02-22T12:00:25.731Z,-4.83
2023-02-22T12:03:22.531Z,-4.85
2023-02-22T12:06:10.329Z,-4.68
2023-02-22T12:09:02.005Z,-4.65
2023-02-22T12:11:55.022Z,-4.70
2023-02-22T12:14:35.579Z,-4.76
2023-02-22T12:17:20.582Z,-4.80
2023-02-22T12:20:12.265Z,-4.86
2023-02-22T12:22:56.105Z,-5.04
2023-02-22T12:25:30.526Z,-5.00
2023-02-22T12:28:23.665Z,-5.00
2023-02-22T12:31:04.849Z,-5.14
2023-02-22T12:33:48.337Z,-5.36
2023-02-22T12:36:26.287Z,-5.22
2023-02-22T12:39:07.389Z,-5.27
2023-02-22T12:41:46.037Z,-5.39
2023-02-22T12:44:22.771Z,-5.46
2023-02-22T12:46:55.161Z,-5.51
2023-02-22T12:49:34.932Z,-5.58
2023-02-22T12:52:21.741Z,-5.57
2023-02-22T12:54:59.915Z,-5.66
2023-02-22T12:57:42.788Z,-5.62
2023-02-22T13:00:23.204Z,-5.71
2023-02-22T13:03:01.685Z,-5.66
2023-02-22T13:05:37.446Z,-5.77
2023-02-22T13:08:28.921Z,-5.75
2023-02-22T13:11:20.187Z,-5.90
2023-02-22T13:14:07.891Z,-5.90
2023-02-22T13:16:52.689Z,-5.88
2023-02-22T13:19:38.613Z,-5.95
2023-02-22T13:22:17.488Z,-6.02
2023-02-22T13:25:03.497Z,-5.94
2023-02-22T13:27:43.509Z,-5.95
2023-02-22T13:30:23.207Z,-6.07
2023-02-22T13:33:30.865Z,-6.04
2023-02-22T13:36:21.085Z,-6.15
2023-02-22T13:39:18.027Z,-6.22
2023-02-22T13:42:08.333Z,-6.23
2023-02-22T13:45:28.611Z,-6.26
2023-02-22T13:48:28.006Z,-6.29
2023-02-22T13:51:47.219Z,-6.30
2023-02-22T13:54:28.323Z,-6.36
2023-02-22T13:56:59.552Z,-6.30
2023-02-22T13:59:35.975Z,-6.37
2023-02-22T14:02:08.081Z,-6.46
2023-02-22T14:04:44.164Z,-6.40
2023-02-22T14:07:51.905Z,-6.44
2023-02-22T14:10:56.322Z,-6.59
2023-02-22T14:13:28.550Z,-6.71
2023-02-22T14:16:25.155Z,-6.75
2023-02-22T14:19:06.627Z,-6.73
2023-02-22T14:21:36.424Z,-6.79
2023-02-22T14:24:13.595Z,-6.82
2023-02-22T14:26:54.432Z,-6.81
2023-02-22T14:29:34.469Z,-6.80
2023-02-22T14:32:08.202Z,-6.86
2023-02-22T14:34:48.845Z,-6.95
2023-02-22T14:37:25.022Z,-6.95
2023-02-22T14:40:02.363Z,-6.95
2023-02-22T14:42:37.161Z,-7.02
2023-02-22T14:45:23.412Z,-7.13
2023-02-22T14:48:04.020Z,-7.13
2023-02-22T14:50:48.871Z,-7.16
2023-02-22T14:53:29.064Z,-7.21
2023-02-22T14:56:03.556Z,-7.25
2023-02-22T14:58:42.279Z,-7.32
2023-02-22T15:01:55.339Z,-7.36
2023-02-22T15:04:31.714Z,-7.35
2023-02-22T15:07:09.006Z,-7.42
2023-02-22T15:09:38.904Z,-7.49
2023-02-22T15:12:22.889Z,-7.49
2023-02-22T15:15:15.295Z,-7.54
2023-02-22T15:17:46.816Z,-7.68
2023-02-22T15:20:20.780Z,-7.65
2023-02-22T15:22:53.925Z,-7.63
2023-02-22T15:25:30.746Z,-7.76
2023-02-22T15:28:05.292Z,-7.72
2023-02-22T15:30:35.638Z,-7.79
2023-02-22T15:33:38.163Z,-7.77
2023-02-22T15:36:16.004Z,-7.76
2023-02-22T15:38:56.368Z,-7.79
2023-02-22T15:41:33.865Z,-7.82
2023-02-22T15:44:23.340Z,-7.91
2023-02-22T15:47:42.369Z,-7.90
2023-02-22T15:50:34.634Z,-7.90
2023-02-22T15:53:06.778Z,-7.86
2023-02-22T15:55:39.775Z,-8.04
2023-02-22T15:58:13.463Z,-7.96
2023-02-22T16:00:44.988Z,-8.04
2023-02-22T16:03:17.969Z,-8.06
2023-02-22T16:05:52.703Z,-8.07
2023-02-22T16:08:24.595Z,-8.05
2023-02-22T16:11:00.752Z,-8.12
2023-02-22T16:13:33.525Z,-8.12
2023-02-22T16:16:29.741Z,-8.20
2023-02-22T16:19:42.530Z,-8.21
2023-02-22T16:22:29.722Z,-8.22
2023-02-22T16:25:25.394Z,-8.21
2023-02-22T16:27:58.023Z,-8.27
2023-02-22T16:30:32.384Z,-8.27
2023-02-22T16:33:06.390Z,-8.34
2023-02-22T16:35:35.737Z,-8.27
2023-02-22T16:38:17.076Z,-8.35
2023-02-22T16:40:52.426Z,-8.31
2023-02-22T16:43:24.862Z,-8.40
2023-02-22T16:45:54.005Z,-8.38
2023-02-22T16:48:25.490Z,-8.31
2023-02-22T16:50:56.918Z,-8.42
2023-02-22T16:53:30.425Z,-8.34
2023-02-22T16:56:05.837Z,-8.29
2023-02-22T16:58:38.207Z,-8.33
2023-02-22T17:01:07.287Z,-8.34
2023-02-22T17:03:39.006Z,-8.32
2023-02-22T17:06:10.497Z,-8.35
2023-02-22T17:08:41.760Z,-8.36
2023-02-22T17:11:15.572Z,-8.32
2023-02-22T17:13:45.812Z,-8.42
2023-02-22T17:16:18.541Z,-8.50
2023-02-22T17:18:50.965Z,-8.54
2023-02-22T17:21:22.428Z,-8.58
2023-02-22T17:23:55.968Z,-8.54
2023-02-22T17:26:26.273Z,-8.58
2023-02-22T17:28:54.921Z,-8.65
2023-02-22T17:31:29.885Z,-8.72
2023-02-22T17:34:15.391Z,-8.77
2023-02-22T17:36:45.885Z,-8.79
2023-02-22T17:39:48.275Z,-8.79
2023-02-22T17:42:39.126Z,-8.83
2023-02-22T17:45:13.983Z,-8.81
2023-02-22T17:47:44.922Z,-8.81
2023-02-22T17:50:17.310Z,-8.81
2023-02-22T17:52:54.762Z,-8.89
2023-02-22T17:55:25.271Z,-8.93
2023-02-22T17:57:58.432Z,-9.02
2023-02-22T18:00:36.804Z,-9.15
2023-02-22T18:03:13.755Z,-9.14
2023-02-22T18:05:46.289Z,-9.10
2023-02-22T18:08:16.933Z,-9.14
2023-02-22T18:10:49.400Z,-9.15
2023-02-22T18:13:19.281Z,-9.13
2023-02-22T18:15:48.765Z,-9.19
2023-02-22T18:18:19.941Z,-9.22
2023-02-22T18:20:51.648Z,-9.28
2023-02-22T18:23:26.291Z,-9.30
2023-02-22T18:29:01.950Z,-9.40
2023-02-22T18:31:30.918Z,-9.40
2023-02-22T18:33:59.691Z,-9.42
2023-02-22T18:36:28.415Z,-9.43
2023-02-22T18:38:58.223Z,-9.44
2023-02-22T18:41:28.973Z,-9.40
2023-02-22T18:44:00.499Z,-9.40
2023-02-22T18:46:30.401Z,-9.46
2023-02-22T18:49:00.592Z,-9.38
2023-02-22T18:51:29.501Z,-9.30
2023-02-22T18:54:01.129Z,-9.25
2023-02-22T18:56:34.390Z,-9.22
2023-02-22T18:59:05.705Z,-9.22
2023-02-22T19:01:38.825Z,-9.24
2023-02-22T19:04:12.012Z,-9.24
2023-02-22T19:06:42.978Z,-9.22
2023-02-22T19:09:11.589Z,-9.25
2023-02-22T19:11:45.041Z,-9.34
2023-02-22T19:14:16.664Z,-9.40
2023-02-22T19:16:46.548Z,-9.45
2023-02-22T19:19:20.774Z,-9.50
2023-02-22T19:21:50.177Z,-9.54
2023-02-22T19:24:20.671Z,-9.66
2023-02-22T19:26:52.072Z,-9.68
2023-02-22T19:29:23.870Z,-9.66
2023-02-22T19:31:53.926Z,-9.71
2023-02-22T19:34:24.932Z,-9.71
2023-02-22T19:36:53.882Z,-9.74
2023-02-22T19:41:54.013Z,-9.90
2023-02-22T19:44:22.855Z,-9.84
2023-02-22T19:46:55.249Z,-9.83
2023-02-22T19:49:27.847Z,-9.87
2023-02-22T19:51:58.834Z,-9.80
2023-02-22T19:54:29.174Z,-9.85
2023-02-22T19:56:59.440Z,-9.77
2023-02-22T19:59:30.089Z,-9.78
2023-02-22T20:01:59.073Z,-9.80
2023-02-22T20:04:30.782Z,-9.89
2023-02-22T20:06:59.921Z,-9.93
2023-02-22T20:09:36.353Z,-9.99
2023-02-22T20:12:08.214Z,-9.98
2023-02-22T20:14:38.854Z,-9.86
2023-02-22T20:17:08.077Z,-9.89
2023-02-22T20:19:40.367Z,-10.01
2023-02-22T20:22:10.141Z,-9.93
2023-02-22T20:24:40.793Z,-9.89
2023-02-22T20:27:10.939Z,-9.89
2023-02-22T20:29:39.602Z,-10.00
2023-02-22T20:32:15.757Z,-10.07
2023-02-22T20:34:51.227Z,-10.21
2023-02-22T20:37:20.141Z,-10.17
2023-02-22T20:39:48.898Z,-10.18
2023-02-22T20:42:20.789Z,-10.16
2023-02-22T20:44:51.291Z,-10.20
2023-02-22T20:47:19.911Z,-10.20
2023-02-22T20:49:48.534Z,-10.14
2023-02-22T20:52:17.247Z,-10.14
2023-02-22T20:54:46.220Z,-10.24
2023-02-22T20:57:15.027Z,-10.21
2023-02-22T20:59:54.814Z,-10.26
2023-02-22T21:02:27.061Z,-10.36
2023-02-22T21:04:58.322Z,-10.32
2023-02-22T21:07:27.095Z,-10.32
2023-02-22T21:09:58.091Z,-10.43
2023-02-22T21:12:27.202Z,-10.41
2023-02-22T21:14:59.002Z,-10.37
2023-02-22T21:17:32.250Z,-10.47
2023-02-22T21:20:13.131Z,-10.42
2023-02-22T21:22:42.517Z,-10.42
2023-02-22T21:25:14.142Z,-10.50
2023-02-22T21:27:42.832Z,-10.50
2023-02-22T21:30:15.109Z,-10.52
2023-02-22T21:32:43.835Z,-10.60
2023-02-22T21:35:12.587Z,-10.58
2023-02-22T21:37:46.319Z,-10.62
2023-02-22T21:40:19.322Z,-10.68
2023-02-22T21:42:49.446Z,-10.61
2023-02-22T21:45:23.002Z,-10.65
2023-02-22T21:47:54.681Z,-10.66
2023-02-22T21:50:30.188Z,-10.69
2023-02-22T21:53:00.430Z,-10.72
2023-02-22T21:55:31.477Z,-10.78
2023-02-22T21:58:00.424Z,-10.78
2023-02-22T22:00:38.138Z,-10.84
2023-02-22T22:03:14.478Z,-10.89
2023-02-22T22:05:45.340Z,-10.87
2023-02-22T22:08:19.559Z,-10.89
2023-02-22T22:10:55.294Z,-10.92
2023-02-22T22:13:24.455Z,-10.96
2023-02-22T22:15:54.555Z,-10.99
2023-02-22T22:18:23.324Z,-10.99
2023-02-22T22:20:52.065Z,-11.04
2023-02-22T22:23:21.101Z,-11.04
2023-02-22T22:25:51.345Z,-11.14
2023-02-22T22:28:20.747Z,-11.17
2023-02-22T22:30:49.535Z,-11.12
2023-02-22T22:33:19.869Z,-11.15
2023-02-22T22:35:48.527Z,-11.23
2023-02-22T22:38:18.524Z,-11.22
2023-02-22T22:40:51.019Z,-11.21
2023-02-22T22:43:19.724Z,-11.17
2023-02-22T22:45:48.486Z,-11.21
2023-02-22T22:48:17.212Z,-11.25
2023-02-22T22:50:47.336Z,-11.25
2023-02-22T22:53:16.738Z,-11.32
2023-02-22T22:55:45.827Z,-11.37
2023-02-22T22:58:14.528Z,-11.41
2023-02-22T23:00:46.353Z,-11.47
2023-02-22T23:03:19.317Z,-11.49
2023-02-22T23:05:50.206Z,-11.52
2023-02-22T23:08:18.960Z,-11.55
2023-02-22T23:10:47.704Z,-11.59
2023-02-22T23:13:16.673Z,-11.61
2023-02-22T23:15:48.112Z,-11.64
2023-02-22T23:18:20.477Z,-11.69
2023-02-22T23:20:55.296Z,-11.71
2023-02-22T23:23:27.696Z,-11.80
2023-02-22T23:26:11.597Z,-11.81
2023-02-22T23:28:42.336Z,-11.85
2023-02-22T23:31:15.119Z,-11.84
2023-02-22T23:33:45.667Z,-11.91
2023-02-22T23:36:16.462Z,-11.87
2023-02-22T23:38:46.484Z,-11.87
2023-02-22T23:41:17.962Z,-11.85
2023-02-22T23:43:47.519Z,-11.87
2023-02-22T23:46:19.611Z,-11.87
2023-02-22T23:48:52.829Z,-11.87
2023-02-22T23:51:25.790Z,-11.85
2023-02-22T23:53:56.592Z,-11.87
2023-02-22T23:56:27.927Z,-11.85
2023-02-22T23:58:57.679Z,-11.85
